Vers la page d'accueil de NAV CANADA Ouverture d'une nouvelle session Chercher sur le site AWWS Clause de non-reponsabilité To the equivalent English page Trucs et astuces FAQ Quoi de neuf sur le site Vers la section Prévisions et observations / NOTAM Vers le site web pour <<Déposer un plan de vol>> Publications et liens importants Mise à jour du profil d'usager Numéros de téléphone des FIC Mes données météo personnelles Données météo de route Données météo régionales Données météo locales Vers la section Prévisions et observations / NOTAM
Requête générée le 2021/04/12 à 03:45:22 UTC. L'information météorologique disponible à ce moment est affichée.

METAR/TAF

Si vous notez des différences entre le METAR/TAF codé et le METAR/TAF en langage clair, veuillez utiliser la version codée. Les bulletins LWIS ne sont pas décodés en langage clair.

QUEBEC/JEAN LESAGE INTL/QC    (voir Cam météo)

METAR CYQB 120300Z 08018G23KT 15SM BKN057 07/05 A2988 RMK SC7 SLP123=
METAR
LIEU
CYQB - QUEBEC/JEAN LESAGE INTL/QC
DATE - HEURE
12 AVRIL 2021 - 0300 UTC
VENT
80 VRAIS @ 18  NOEUDS
RAFALES
23 NOEUDS
VISIBILITE
15 MILLES TERR.
PORTEE VISUELLE DE PISTE
METEO
NEBULOSITE
NUAGES FRAGMENTES (5/8 - 7/8) 5700  PI
TEMP / PT DE ROSEE
7 C / 5 C
ALTIMETRE
29.88 PO HG
TEMPS RECENT
CISAILLEMENT

METAR CYQB 120200Z 08016G21KT 15SM OVC059 07/05 A2989 RMK SC8 SLP124=
METAR
LIEU
CYQB - QUEBEC/JEAN LESAGE INTL/QC
DATE - HEURE
12 AVRIL 2021 - 0200 UTC
VENT
80 VRAIS @ 16  NOEUDS
RAFALES
21 NOEUDS
VISIBILITE
15 MILLES TERR.
PORTEE VISUELLE DE PISTE
METEO
NEBULOSITE
CIEL COUVERT 5900  PI
TEMP / PT DE ROSEE
7 C / 5 C
ALTIMETRE
29.89 PO HG
TEMPS RECENT
CISAILLEMENT

METAR CYQB 120100Z 07014KT 15SM OVC062 08/04 A2988 RMK SC8 SLP123=
METAR
LIEU
CYQB - QUEBEC/JEAN LESAGE INTL/QC
DATE - HEURE
12 AVRIL 2021 - 0100 UTC
VENT
70 VRAIS @ 14  NOEUDS
VISIBILITE
15 MILLES TERR.
PORTEE VISUELLE DE PISTE
METEO
NEBULOSITE
CIEL COUVERT 6200  PI
TEMP / PT DE ROSEE
8 C / 4 C
ALTIMETRE
29.88 PO HG
TEMPS RECENT
CISAILLEMENT

TAF CYQB 112338Z 1200/1224 07015KT P6SM FEW040 SCT220 FM120600 07015KT P6SM FEW015 SCT030 TEMPO 1206/1209 BKN015 BKN030 FM120900 07015KT P6SM -DZ BKN015 OVC030 TEMPO 1209/1215 P6SM NSW SCT015 BKN030 BECMG 1210/1212 07015G25KT FM121500 07012G22KT P6SM FEW015 BKN030 FM122100 07015G25KT P6SM FEW015 SCT030 RMK NXT FCST BY 120600Z=
TAF
LIEU

CYQB - QUEBEC/JEAN LESAGE INTL/QC
VALIDITE [UTC]
11 APR - 2338 à
13 APR - 0000
 
PERIODES
[UTC]
VENT
[DEGRES VRAIS]
VISIBILITE
[MILLES TERR.]
METEO
NEBULOSITE
[PIEDS AGL]
 
12 APR - 0000 à
12 APR - 0600
70 @ 15 NOEUDS
6+
---
4000 QUELQUES
22000 EPARS
 
12 APR - 0600 à
12 APR - 0900
70 @ 15 NOEUDS
6+
---
1500 QUELQUES
3000 EPARS
CHANGEMENTS TEMPORAIRES
12 APR - 0600 à
12 APR - 0900
 
 
 
1500 FRAGMENTES
3000 FRAGMENTES
 
12 APR - 0900 à
12 APR - 1500
70 @ 15 NOEUDS
6+
BRUINE FAIBLE
1500 FRAGMENTES
3000 CIEL COUVERT
CHANGEMENTS TEMPORAIRES
12 APR - 0900 à
12 APR - 1500
 
6+
---
1500 EPARS
3000 FRAGMENTES
CHANGEMENTS GRADUELS
12 APR - 1000 à
12 APR - 1200
70 @ 15 NOEUDS
RAFALES 25 NOEUDS
 
 
 
 
12 APR - 1500 à
12 APR - 2100
70 @ 12 NOEUDS
RAFALES 22 NOEUDS
6+
---
1500 QUELQUES
3000 FRAGMENTES
 
12 APR - 2100 à
13 APR - 0000
70 @ 15 NOEUDS
RAFALES 25 NOEUDS
6+
---
1500 QUELQUES
3000 EPARS
REMARQUES
LA PREVISION SUIVANTE SERA EMISE POUR 0600 UTC LE 12


Votre heure Heure UTC
Données météorologiques fournies par Environnement Canada et NAV CANADA